Weather at Seletar Airport

Public forecast

Using degrees Celsius for public forecast. Weather courtesy of forecast.io.

Current aviation weather report (METAR) for Seletar Airport

Retrieved 2020/10/30 03:00 UTC (37 minutes ago):

WSSL 300300Z VRB04KT 9999 FEW018 BKN300 32/23 Q1011

Aviation forecast (TAF) for Seletar Airport

Retrieved 2020-10-30 00:09 UTC (3 hours ago):

TAF WSSL 292300Z 3000/3106 17007KT 9999 FEW015 SCT020 TEMPO 3005/3008 3000 TSRA FEW012CB BKN015